Time;durP1;ratioP1;P1;durP2;ratioP2;P2;SDS_P1;SDS_P2;PMS_P1;PMS_P2;Temp;Humidity;BMP_temperature;BMP_pressure;BME280_temperature;BME280_humidity;BME280_pressure;Samples;Min_cycle;Max_cycle;Signal;HPM_P1;HPM_P2
2024/03/19 00:07:54;;;;;;;20.30;9.93;;;;;;;12.09;56.54;101688.56;4864253;28;124370;-62
2024/03/19 00:10:20;;;;;;;25.52;11.27;;;;;;;12.03;56.56;101683.47;4880008;28;119390;-62
2024/03/19 00:12:47;;;;;;;24.77;10.50;;;;;;;11.98;56.97;101685.44;4865494;28;119241;-69
2024/03/19 00:15:13;;;;;;;24.70;10.88;;;;;;;11.97;56.91;101689.03;4880988;28;124076;-62
2024/03/19 00:17:40;;;;;;;19.15;10.88;;;;;;;11.94;57.08;101683.81;4866599;28;124673;-62
2024/03/19 00:20:09;;;;;;;19.98;10.23;;;;;;;11.94;57.14;101675.84;4853595;28;119040;-62
2024/03/19 00:22:36;;;;;;;22.10;11.23;;;;;;;11.94;57.20;101689.13;4865738;28;119018;-62
2024/03/19 00:25:05;;;;;;;19.60;10.35;;;;;;;11.95;57.12;101691.75;4876704;28;124200;-62
2024/03/19 00:27:32;;;;;;;21.50;10.63;;;;;;;11.94;57.20;101683.81;4863913;28;123388;-62
2024/03/19 00:30:00;;;;;;;23.17;10.88;;;;;;;11.93;57.17;101682.09;4863805;28;119332;-62
2024/03/19 00:32:27;;;;;;;22.38;10.60;;;;;;;11.91;57.20;101674.19;4878516;28;119350;-62
2024/03/19 00:34:53;;;;;;;24.05;10.32;;;;;;;11.92;57.32;101675.06;4862711;28;123814;-62
2024/03/19 00:37:19;;;;;;;19.52;10.02;;;;;;;11.91;57.34;101673.34;4862115;28;123851;-63
2024/03/19 00:39:45;;;;;;;19.05;10.13;;;;;;;11.91;57.56;101673.34;4865755;28;119364;-63
2024/03/19 00:42:12;;;;;;;21.52;9.55;;;;;;;11.90;57.73;101667.13;4866486;28;119596;-63
2024/03/19 00:44:39;;;;;;;20.25;9.50;;;;;;;11.90;57.51;101671.59;4864874;28;124111;-63
2024/03/19 00:47:05;;;;;;;26.08;9.95;;;;;;;11.88;57.69;101664.53;4879931;28;123449;-62
2024/03/19 00:49:32;;;;;;;18.23;9.30;;;;;;;11.87;57.85;101662.78;4878083;28;118675;-62
2024/03/19 00:51:58;;;;;;;21.42;9.95;;;;;;;11.88;57.95;101668.97;4865537;28;119132;-62
2024/03/19 00:54:26;;;;;;;18.02;9.48;;;;;;;11.91;58.25;101657.41;4865974;28;124112;-62
2024/03/19 00:56:52;;;;;;;19.67;9.25;;;;;;;11.91;58.28;101652.09;4868496;28;124632;-63
2024/03/19 00:59:23;;;;;;;18.58;9.13;;;;;;;11.94;58.52;101651.97;4883412;28;119967;-62
2024/03/19 01:01:49;;;;;;;20.05;9.95;;;;;;;11.98;58.31;101648.28;4863781;28;118963;-62
2024/03/19 01:04:18;;;;;;;24.90;10.32;;;;;;;12.01;58.35;101648.16;4867045;28;124505;-62
2024/03/19 01:06:48;;;;;;;22.23;10.90;;;;;;;12.03;58.42;101641.00;4882720;28;123921;-62
2024/03/19 01:09:15;;;;;;;25.27;10.45;;;;;;;12.06;58.53;101646.22;4866093;28;120373;-63
2024/03/19 01:11:43;;;;;;;20.88;10.15;;;;;;;12.09;58.49;101640.75;4870280;28;120655;-62
2024/03/19 01:14:10;;;;;;;21.65;11.35;;;;;;;12.11;58.62;101638.94;4882114;28;124319;-63
2024/03/19 01:16:37;;;;;;;19.08;11.15;;;;;;;12.13;58.68;101637.09;4879426;28;123887;-62
2024/03/19 01:19:03;;;;;;;23.52;11.63;;;;;;;12.16;58.75;101636.94;4866253;28;119218;-64
2024/03/19 01:21:33;;;;;;;20.45;10.82;;;;;;;12.19;58.85;101636.84;4869938;28;118958;-64
2024/03/19 01:24:00;;;;;;;24.67;11.77;;;;;;;12.23;58.84;101633.13;4887417;28;123282;-62
2024/03/19 01:26:27;;;;;;;24.75;11.95;;;;;;;12.27;58.87;101639.19;4870547;28;123694;-62
2024/03/19 01:28:53;;;;;;;22.90;11.50;;;;;;;12.29;58.81;101633.81;4870631;28;119729;-62
2024/03/19 01:31:20;;;;;;;23.45;11.63;;;;;;;12.31;58.81;101631.97;4883589;28;119990;-63
2024/03/19 01:33:46;;;;;;;26.42;11.90;;;;;;;12.34;58.75;101635.38;4867925;28;125676;-63
2024/03/19 01:36:14;;;;;;;26.15;11.43;;;;;;;12.37;59.06;101640.53;4870391;28;124364;-62
2024/03/19 01:38:40;;;;;;;27.55;12.38;;;;;;;12.40;59.05;101639.56;4871399;28;119364;-62
2024/03/19 01:41:07;;;;;;;25.25;12.48;;;;;;;12.42;58.95;101635.06;4868506;28;119233;-62
2024/03/19 01:43:33;;;;;;;31.55;12.65;;;;;;;12.45;59.04;101634.91;4866531;28;124756;-62
2024/03/19 01:46:09;;;;;;;26.25;13.20;;;;;;;12.48;59.08;101632.16;4865757;28;124569;-63
2024/03/19 01:48:38;;;;;;;25.05;14.18;;;;;;;12.51;59.04;101637.34;4883838;28;118466;-62
2024/03/19 01:51:14;;;;;;;28.40;13.35;;;;;;;12.54;59.20;101639.88;4883301;28;119291;-66
2024/03/19 01:53:40;;;;;;;25.42;14.18;;;;;;;12.57;59.23;101637.09;4880202;28;124067;-62
2024/03/19 01:56:11;;;;;;;29.73;13.00;;;;;;;12.60;59.33;101631.66;4869843;28;124354;-62
2024/03/19 02:02:01;;;;;;;29.77;13.77;;;;;;;12.66;59.14;101634.06;4866519;28;119264;-62
2024/03/19 02:04:30;;;;;;;25.38;12.88;;;;;;;12.69;59.33;101634.88;4870422;28;124685;-62
2024/03/19 02:06:56;;;;;;;29.83;14.25;;;;;;;12.72;59.34;101629.44;4872649;28;124680;-62
2024/03/19 02:09:23;;;;;;;26.08;13.45;;;;;;;12.76;59.32;101637.19;4869753;28;119363;-62
2024/03/19 02:11:50;;;;;;;26.10;14.35;;;;;;;12.79;59.48;101630.88;4872610;28;118065;-62
2024/03/19 02:14:17;;;;;;;30.33;14.02;;;;;;;12.82;59.43;101625.44;4869095;28;124129;-62
2024/03/19 02:16:43;;;;;;;27.90;14.43;;;;;;;12.85;59.40;101625.34;4880776;28;123629;-62
2024/03/19 02:19:09;;;;;;;36.53;14.82;;;;;;;12.87;59.40;101618.16;4867518;28;119217;-63
2024/03/19 02:21:36;;;;;;;27.33;14.18;;;;;;;12.89;59.36;101624.28;4868160;28;119150;-62
2024/03/19 02:24:02;;;;;;;26.13;14.15;;;;;;;12.92;59.19;101621.50;4871017;28;125087;-63
2024/03/19 02:26:30;;;;;;;30.80;15.00;;;;;;;12.92;59.29;101624.16;4882490;28;123893;-62
2024/03/19 02:28:57;;;;;;;31.75;14.52;;;;;;;12.95;59.24;101631.13;4871262;28;119475;-62
2024/03/19 02:31:24;;;;;;;27.25;13.77;;;;;;;12.95;59.24;101631.97;4866137;28;119731;-62
2024/03/19 02:33:51;;;;;;;29.92;14.65;;;;;;;12.96;59.14;101628.41;4866949;28;124089;-62
2024/03/19 02:36:18;;;;;;;30.67;14.73;;;;;;;12.94;59.17;101630.25;4864321;28;124819;-62
2024/03/19 02:38:44;;;;;;;27.83;14.30;;;;;;;12.93;59.17;101631.19;4882589;28;119390;-62
2024/03/19 02:41:11;;;;;;;26.90;13.90;;;;;;;12.93;59.21;101639.16;4874071;28;119185;-62
2024/03/19 02:43:38;;;;;;;29.50;14.88;;;;;;;12.92;59.14;101632.13;4866716;28;125043;-62
2024/03/19 02:46:04;;;;;;;28.00;14.38;;;;;;;12.93;59.24;101641.81;4866240;28;128025;-63
2024/03/19 02:48:31;;;;;;;30.52;14.98;;;;;;;12.93;59.19;101633.84;4864040;28;120346;-62
2024/03/19 02:50:57;;;;;;;31.08;15.88;;;;;;;12.94;59.35;101630.25;4867038;28;120919;-62
2024/03/19 02:53:26;;;;;;;30.05;16.15;;;;;;;12.95;59.50;101642.63;4866529;28;123964;-62
2024/03/19 02:55:54;;;;;;;35.85;16.75;;;;;;;12.96;59.54;101643.47;4882281;28;123432;-62
2024/03/19 02:58:21;;;;;;;34.47;17.10;;;;;;;12.97;59.57;101639.91;4884292;28;118822;-62
2024/03/19 03:00:47;;;;;;;28.55;15.70;;;;;;;12.98;59.68;101641.63;4863160;28;117737;-62
2024/03/19 03:03:14;;;;;;;33.95;16.45;;;;;;;12.99;59.82;101638.88;4883583;28;124033;-63
2024/03/19 03:05:45;;;;;;;34.70;17.52;;;;;;;13.01;59.82;101642.34;4866707;28;123196;-62
2024/03/19 03:08:11;;;;;;;32.92;16.58;;;;;;;13.04;59.75;101642.22;4868183;28;119262;-62
2024/03/19 03:10:39;;;;;;;31.50;16.98;;;;;;;13.08;59.88;101647.44;4884880;28;119159;-62
2024/03/19 03:13:05;;;;;;;33.17;16.77;;;;;;;13.10;59.87;101650.88;4865551;28;124162;-62
2024/03/19 03:15:32;;;;;;;35.72;16.63;;;;;;;13.13;59.92;101645.41;4867890;28;124358;-62
2024/03/19 03:17:59;;;;;;;36.65;17.95;;;;;;;13.15;59.89;101643.59;4866018;28;118640;-63
2024/03/19 03:20:26;;;;;;;32.75;18.05;;;;;;;13.17;59.95;101663.00;4881041;28;119035;-62
2024/03/19 03:22:53;;;;;;;34.88;17.30;;;;;;;13.21;59.92;101656.59;4863511;28;124061;-63
2024/03/19 03:25:21;;;;;;;34.10;17.52;;;;;;;13.23;60.07;101646.75;4864738;28;124517;-63
2024/03/19 03:27:47;;;;;;;33.65;17.48;;;;;;;13.26;59.91;101651.97;4849098;28;118385;-63
2024/03/19 03:30:14;;;;;;;32.92;17.48;;;;;;;13.29;59.95;101650.94;4883676;28;119879;-62
2024/03/19 03:32:43;;;;;;;33.60;17.73;;;;;;;13.32;59.88;101646.41;4876366;28;124478;-62
2024/03/19 03:35:10;;;;;;;33.75;17.15;;;;;;;13.36;59.93;101653.31;4877203;28;124100;-62
2024/03/19 03:37:37;;;;;;;34.70;17.00;;;;;;;13.39;59.94;101650.53;4882488;28;121213;-62
2024/03/19 03:40:24;;;;;;;34.08;17.00;;;;;;;13.41;60.00;101645.09;4865669;28;121459;-63
2024/03/19 03:42:51;;;;;;;32.20;16.05;;;;;;;13.43;59.90;101652.13;4865281;28;124648;-62
2024/03/19 03:45:21;;;;;;;30.15;17.27;;;;;;;13.43;59.99;101652.13;4864393;28;123905;-62
2024/03/19 03:47:48;;;;;;;38.47;17.23;;;;;;;13.46;59.98;101658.22;4863193;28;119253;-62
2024/03/19 03:50:15;;;;;;;28.75;16.58;;;;;;;13.48;59.97;101661.69;4866183;28;119060;-61
2024/03/19 03:52:42;;;;;;;30.88;16.95;;;;;;;13.49;59.82;101664.28;4846655;28;124549;-62
2024/03/19 03:55:10;;;;;;;34.22;16.90;;;;;;;13.52;59.94;101663.28;4857761;28;124586;-62
2024/03/19 03:57:39;;;;;;;34.60;17.05;;;;;;;13.53;59.93;101665.03;4881099;28;118874;-62
2024/03/19 04:00:11;;;;;;;36.42;17.42;;;;;;;13.55;59.98;101668.47;4883393;28;119008;-63
2024/03/19 04:02:40;;;;;;;29.67;16.77;;;;;;;13.56;59.88;101672.84;4883548;28;124582;-63
2024/03/19 04:05:07;;;;;;;29.52;17.50;;;;;;;13.57;59.85;101677.25;4865791;28;123964;-63
2024/03/19 04:07:41;;;;;;;30.92;16.13;;;;;;;13.59;59.93;101680.72;4862790;28;119452;-63
2024/03/19 04:10:08;;;;;;;32.28;17.25;;;;;;;13.62;59.92;101680.59;4865685;28;119178;-65
2024/03/19 04:12:35;;;;;;;33.08;17.75;;;;;;;13.63;59.84;101682.28;4865993;28;124064;-62
2024/03/19 04:15:03;;;;;;;31.80;16.88;;;;;;;13.65;59.87;101687.56;4865040;28;123969;-63
2024/03/19 04:17:29;;;;;;;32.72;16.83;;;;;;;13.66;59.92;101687.50;4859717;28;119204;-62
2024/03/19 04:19:56;;;;;;;30.38;17.42;;;;;;;13.65;59.96;101685.75;4863174;28;119128;-62
2024/03/19 04:22:22;;;;;;;34.78;17.38;;;;;;;13.67;59.86;101683.03;4869582;28;124086;-62
2024/03/19 04:24:48;;;;;;;34.55;16.98;;;;;;;13.69;59.71;101691.81;4879207;28;123828;-63
2024/03/19 04:27:16;;;;;;;27.90;16.90;;;;;;;13.68;59.85;101693.63;4867832;28;120384;-63
2024/03/19 04:29:42;;;;;;;32.90;16.90;;;;;;;13.71;59.91;101693.50;4865684;28;119923;-63
2024/03/19 04:32:08;;;;;;;28.25;16.88;;;;;;;13.72;59.88;101687.22;4851223;28;124008;-63
2024/03/19 04:34:35;;;;;;;30.15;16.70;;;;;;;13.74;59.90;101689.81;4881059;28;123939;-63
2024/03/19 04:37:01;;;;;;;31.33;17.05;;;;;;;13.74;59.80;101687.16;4866710;28;119587;-63
2024/03/19 04:39:28;;;;;;;29.17;16.58;;;;;;;13.74;59.86;101692.47;4864316;28;119060;-63
2024/03/19 04:41:54;;;;;;;28.27;16.77;;;;;;;13.73;60.10;101680.97;4864312;28;124065;-63
2024/03/19 04:44:20;;;;;;;30.10;16.45;;;;;;;13.76;59.92;101686.13;4867799;28;123979;-63
2024/03/19 04:46:47;;;;;;;37.47;17.17;;;;;;;13.78;60.05;101676.28;4862542;28;119389;-63
2024/03/19 04:49:13;;;;;;;32.42;17.20;;;;;;;13.80;60.02;101678.88;4852510;28;118105;-63
2024/03/19 04:51:39;;;;;;;33.88;17.40;;;;;;;13.81;59.88;101675.28;4850878;28;123193;-63
2024/03/19 04:54:06;;;;;;;32.42;17.00;;;;;;;13.83;60.04;101678.75;4864770;28;124081;-63
2024/03/19 04:56:32;;;;;;;32.55;17.00;;;;;;;13.85;59.88;101681.34;4871108;28;119348;-63
2024/03/19 04:58:58;;;;;;;32.72;16.88;;;;;;;13.85;60.08;101681.34;4872266;28;119141;-63
2024/03/19 05:01:27;;;;;;;30.77;16.83;;;;;;;13.86;59.83;101688.38;4860909;28;124129;-63
2024/03/19 05:03:54;;;;;;;29.88;16.65;;;;;;;13.86;59.91;101677.72;4856136;28;123390;-63
2024/03/19 05:06:21;;;;;;;26.65;16.33;;;;;;;13.87;59.82;101684.81;4871013;28;119881;-64
2024/03/19 05:08:47;;;;;;;32.10;17.67;;;;;;;13.87;59.87;101684.81;4862860;28;119028;-63
2024/03/19 05:11:14;;;;;;;32.88;16.42;;;;;;;13.87;60.00;101684.81;4871493;28;124301;-63
2024/03/19 05:13:40;;;;;;;32.15;15.35;;;;;;;13.87;59.87;101690.13;4871637;28;123882;-63
2024/03/19 05:16:07;;;;;;;27.83;15.23;;;;;;;13.89;59.89;101688.25;4872836;28;120117;-63
2024/03/19 05:18:33;;;;;;;29.65;15.98;;;;;;;13.89;59.97;101685.59;4868280;28;119955;-63
2024/03/19 05:21:00;;;;;;;26.92;15.30;;;;;;;13.90;59.95;101689.97;4870692;28;123013;-63
2024/03/19 05:23:26;;;;;;;31.48;15.15;;;;;;;13.91;59.83;101691.72;4869148;28;124317;-63
2024/03/19 05:25:52;;;;;;;29.45;15.18;;;;;;;13.93;59.92;101692.50;4871028;28;119359;-63
2024/03/19 05:28:19;;;;;;;30.48;15.23;;;;;;;13.94;59.92;101694.25;4868303;28;119399;-63
2024/03/19 05:30:45;;;;;;;28.20;14.85;;;;;;;13.94;59.81;101696.91;4872230;28;123402;-63
2024/03/19 05:33:11;;;;;;;29.35;14.48;;;;;;;13.96;59.89;101695.03;4870653;28;123969;-63
2024/03/19 05:35:37;;;;;;;26.65;14.95;;;;;;;13.97;59.74;101702.09;4883092;28;119436;-63
2024/03/19 05:38:04;;;;;;;26.75;14.80;;;;;;;13.97;59.85;101694.94;4885695;28;119017;-63
2024/03/19 05:40:31;;;;;;;25.02;14.77;;;;;;;13.98;59.66;101695.84;4884934;28;124313;-63
2024/03/19 05:42:57;;;;;;;26.02;14.45;;;;;;;13.98;59.80;101693.16;4868027;28;123900;-65
2024/03/19 05:45:23;;;;;;;27.65;15.32;;;;;;;13.99;59.86;101701.09;4885842;28;119297;-64
2024/03/19 05:47:50;;;;;;;27.15;14.80;;;;;;;13.99;59.65;101700.22;4873246;28;119199;-63
2024/03/19 05:50:16;;;;;;;29.60;14.25;;;;;;;14.00;59.73;101701.94;4871495;28;124676;-63
2024/03/19 05:52:42;;;;;;;28.80;16.00;;;;;;;14.01;59.73;101709.00;4871515;28;123507;-63
2024/03/19 05:55:09;;;;;;;26.30;16.13;;;;;;;14.00;59.72;101713.47;4873531;28;119932;-63
2024/03/19 05:57:36;;;;;;;27.67;15.68;;;;;;;13.99;59.74;101706.41;4869415;28;119152;-63
2024/03/19 06:00:06;;;;;;;28.67;14.95;;;;;;;14.00;59.81;101718.78;4878945;28;124066;-63
2024/03/19 06:02:33;;;;;;;28.60;15.00;;;;;;;13.99;59.87;101718.84;4869346;28;124382;-63
2024/03/19 06:05:00;;;;;;;27.33;14.55;;;;;;;14.00;59.76;101709.94;4865267;28;121068;-63
2024/03/19 06:07:26;;;;;;;28.80;14.88;;;;;;;13.99;59.67;101705.53;4872987;28;120661;-63
2024/03/19 06:09:53;;;;;;;26.65;14.63;;;;;;;13.98;59.89;101709.16;4868059;28;124703;-63
2024/03/19 06:12:19;;;;;;;26.27;13.95;;;;;;;13.97;59.97;101707.41;4866800;28;124101;-63
2024/03/19 06:14:45;;;;;;;26.75;14.50;;;;;;;13.98;59.92;101698.50;4869488;28;119303;-64
2024/03/19 06:17:13;;;;;;;27.50;14.10;;;;;;;14.01;59.88;101709.00;4869900;28;120058;-63
2024/03/19 06:19:39;;;;;;;24.90;14.25;;;;;;;14.02;59.99;101710.72;4868658;28;122994;-63
2024/03/19 06:22:06;;;;;;;25.55;13.82;;;;;;;14.04;59.84;101710.66;4866390;28;123951;-63
2024/03/19 06:24:32;;;;;;;19.33;10.55;;;;;;;14.05;59.78;101721.22;4883560;28;119182;-63
2024/03/19 06:26:58;;;;;;;20.67;11.07;;;;;;;14.07;59.81;101715.84;4885350;28;119014;-63
2024/03/19 06:29:25;;;;;;;21.13;10.93;;;;;;;14.09;59.95;101727.28;4868825;28;124325;-63
2024/03/19 06:31:51;;;;;;;23.17;10.98;;;;;;;14.10;59.92;101724.56;4868607;28;122993;-64
2024/03/19 06:34:18;;;;;;;21.27;10.55;;;;;;;14.12;59.80;101722.69;4881453;28;119828;-63
2024/03/19 06:36:44;;;;;;;20.02;11.07;;;;;;;14.13;59.82;101724.44;4867293;28;119384;-64
2024/03/19 06:39:15;;;;;;;19.38;10.05;;;;;;;14.14;59.97;101728.81;4879144;28;124518;-63
2024/03/19 06:41:42;;;;;;;22.83;10.52;;;;;;;14.15;59.81;101733.22;4869078;28;124257;-63
2024/03/19 06:44:08;;;;;;;21.92;10.10;;;;;;;14.15;59.81;101733.22;4849611;28;119214;-63
2024/03/19 06:46:34;;;;;;;19.15;9.35;;;;;;;14.18;59.89;101735.75;4872323;28;118990;-63
2024/03/19 06:49:01;;;;;;;18.75;10.07;;;;;;;14.19;59.78;101729.47;4865928;28;124131;-64
2024/03/19 06:51:27;;;;;;;20.83;10.73;;;;;;;14.21;59.72;101727.59;4879239;28;124457;-63
2024/03/19 06:53:53;;;;;;;20.52;10.23;;;;;;;14.23;59.70;101734.66;4867137;28;118665;-63
2024/03/19 06:56:20;;;;;;;18.48;9.50;;;;;;;14.24;59.83;101736.38;4860069;28;120499;-63
2024/03/19 06:58:47;;;;;;;19.98;10.23;;;;;;;14.26;59.76;101739.84;4869093;28;123640;-63
2024/03/19 07:01:13;;;;;;;19.55;10.35;;;;;;;14.28;59.86;101743.28;4863255;28;123868;-63
2024/03/19 07:03:40;;;;;;;19.67;10.32;;;;;;;14.29;59.88;101734.38;4866936;28;119395;-63
2024/03/19 07:06:07;;;;;;;23.10;11.40;;;;;;;14.29;59.83;101734.38;4867058;28;118809;-63
2024/03/19 07:08:34;;;;;;;20.35;10.48;;;;;;;14.29;59.93;101734.38;4872538;28;123186;-64
2024/03/19 07:11:00;;;;;;;22.00;11.38;;;;;;;14.30;59.76;101738.78;4868990;28;123904;-64
2024/03/19 07:13:27;;;;;;;23.63;11.57;;;;;;;14.30;59.89;101741.44;4868114;28;119757;-62
2024/03/19 07:15:53;;;;;;;22.70;11.15;;;;;;;14.32;59.85;101739.56;4853962;28;119045;-65
2024/03/19 07:18:20;;;;;;;21.52;11.45;;;;;;;14.32;59.74;101732.44;4870544;28;124010;-63
2024/03/19 07:20:46;;;;;;;22.30;11.05;;;;;;;14.34;59.79;101743.03;4880843;28;122863;-63
2024/03/19 07:23:14;;;;;;;26.67;12.50;;;;;;;14.35;60.01;101736.75;4873699;28;119315;-63
2024/03/19 07:25:40;;;;;;;21.45;12.73;;;;;;;14.36;59.91;101746.47;4879859;28;119116;-63
2024/03/19 07:28:06;;;;;;;22.23;12.50;;;;;;;14.40;59.91;101745.41;4862388;28;124488;-63
2024/03/19 07:30:32;;;;;;;24.60;12.95;;;;;;;14.41;59.90;101744.47;4882125;28;124607;-63
2024/03/19 07:33:01;;;;;;;24.00;12.88;;;;;;;14.44;59.91;101749.66;4868098;28;119348;-64
2024/03/19 07:35:28;;;;;;;25.10;13.43;;;;;;;14.46;59.89;101742.44;4863908;28;118273;-63
2024/03/19 07:37:54;;;;;;;25.40;13.52;;;;;;;14.50;59.95;101745.81;4860837;28;124443;-63
2024/03/19 07:40:21;;;;;;;23.90;12.80;;;;;;;14.51;60.10;101745.75;4879585;28;124477;-62
2024/03/19 07:42:50;;;;;;;25.95;12.98;;;;;;;14.53;60.00;101749.22;4869016;28;120529;-62
2024/03/19 07:45:17;;;;;;;23.27;13.00;;;;;;;14.57;60.13;101749.97;4864955;28;120243;-62
2024/03/19 07:47:43;;;;;;;23.48;12.23;;;;;;;14.60;60.20;101745.34;4868187;28;123900;-62
2024/03/19 07:50:10;;;;;;;21.60;12.32;;;;;;;14.64;60.00;101755.88;4864111;28;124669;-62
2024/03/19 07:52:37;;;;;;;24.23;12.40;;;;;;;14.67;60.06;101751.25;4858941;28;119415;-62
2024/03/19 07:55:04;;;;;;;25.35;12.35;;;;;;;14.71;60.11;101758.19;4875777;28;116747;-62
2024/03/19 07:57:30;;;;;;;18.75;11.65;;;;;;;14.75;59.96;101753.56;4880525;28;124748;-62
2024/03/19 08:00:05;;;;;;;20.02;11.30;;;;;;;14.78;59.91;101756.06;4882499;28;124930;-62
2024/03/19 08:02:32;;;;;;;20.83;11.55;;;;;;;14.82;59.96;101754.97;4872941;28;120519;-62
2024/03/19 08:04:58;;;;;;;19.88;10.35;;;;;;;14.86;59.96;101761.94;4867124;28;119072;-62
2024/03/19 08:07:24;;;;;;;22.42;11.00;;;;;;;14.91;60.12;101753.69;4880100;28;125377;-62
2024/03/19 08:09:51;;;;;;;16.38;10.43;;;;;;;14.95;60.20;101756.13;4882269;28;124555;-62
2024/03/19 08:12:19;;;;;;;21.48;10.93;;;;;;;15.04;60.05;101754.81;4868301;28;119372;-62
2024/03/19 08:14:45;;;;;;;20.02;10.77;;;;;;;15.12;60.16;101757.09;4855998;28;118615;-62
2024/03/19 08:17:12;;;;;;;21.30;10.93;;;;;;;15.21;60.09;101761.97;4878337;28;124033;-62
2024/03/19 08:19:38;;;;;;;17.50;11.38;;;;;;;15.29;60.15;101759.78;4877398;28;123971;-62
2024/03/19 08:22:05;;;;;;;20.10;10.80;;;;;;;15.40;60.14;101771.75;4865664;28;118952;-62
2024/03/19 08:24:32;;;;;;;19.48;11.23;;;;;;;15.47;60.01;101757.16;4863687;28;119367;-62
2024/03/19 08:26:58;;;;;;;23.73;10.77;;;;;;;15.53;59.98;101756.81;4845236;28;127330;-62
2024/03/19 08:29:26;;;;;;;20.17;9.93;;;;;;;15.61;59.87;101749.28;4865842;28;123992;-62
2024/03/19 08:31:52;;;;;;;18.70;10.18;;;;;;;15.69;59.80;101757.78;4858063;28;120310;-62
2024/03/19 08:34:19;;;;;;;15.85;9.30;;;;;;;15.77;59.96;101760.94;4859564;28;119988;-62
2024/03/19 08:36:45;;;;;;;15.15;9.63;;;;;;;15.85;59.88;101762.34;4864418;28;124345;-62
2024/03/19 08:39:13;;;;;;;18.35;9.27;;;;;;;15.93;59.64;101760.13;4856716;28;124375;-62
2024/03/19 08:41:40;;;;;;;15.82;8.65;;;;;;;16.02;59.63;101758.78;4878858;28;119352;-62
2024/03/19 08:44:06;;;;;;;15.32;8.43;;;;;;;16.11;59.64;101764.47;4870287;28;118868;-62
2024/03/19 08:46:32;;;;;;;17.45;8.15;;;;;;;16.24;59.53;101761.16;4881714;28;124099;-62
2024/03/19 08:48:59;;;;;;;13.88;7.90;;;;;;;16.39;59.73;101768.34;4860014;28;124533;-62
2024/03/19 08:51:25;;;;;;;12.20;6.65;;;;;;;16.53;59.48;101765.75;4881322;28;119372;-62
2024/03/19 08:53:53;;;;;;;11.65;6.22;;;;;;;16.71;59.42;101763.03;4867415;28;119513;-62
2024/03/19 08:56:19;;;;;;;14.25;6.30;;;;;;;16.88;59.28;101754.06;4868726;28;123976;-62
2024/03/19 08:58:45;;;;;;;11.25;6.25;;;;;;;17.04;59.24;101759.41;4866527;28;124644;-62
2024/03/19 09:01:13;;;;;;;10.02;5.25;;;;;;;17.20;58.98;101760.25;4867984;28;119637;-62
2024/03/19 09:03:40;;;;;;;10.13;5.30;;;;;;;17.34;58.75;101756.75;4866900;28;119376;-62
2024/03/19 09:06:07;;;;;;;10.65;5.05;;;;;;;17.49;58.52;101757.66;4862702;28;124136;-62
2024/03/19 09:08:33;;;;;;;12.30;4.95;;;;;;;17.60;58.17;101751.66;4863879;28;124899;-62
2024/03/19 09:10:59;;;;;;;8.48;4.90;;;;;;;17.67;57.71;101764.59;4881768;28;119251;-62
2024/03/19 09:13:26;;;;;;;9.48;4.78;;;;;;;17.74;57.72;101758.84;4864940;28;118295;-62
2024/03/19 09:15:52;;;;;;;10.63;5.03;;;;;;;17.81;57.48;101761.06;4880187;28;124046;-62
2024/03/19 09:18:19;;;;;;;9.60;4.78;;;;;;;17.87;57.12;101754.50;4875172;28;123467;-62
2024/03/19 09:20:47;;;;;;;10.38;4.60;;;;;;;17.91;56.93;101761.41;4867737;28;119349;-62
2024/03/19 09:23:14;;;;;;;10.93;5.18;;;;;;;17.93;56.85;101754.13;4864601;28;120016;-62
2024/03/19 09:25:42;;;;;;;11.88;5.15;;;;;;;17.99;56.62;101756.44;4847784;28;124455;-62
2024/03/19 09:28:08;;;;;;;10.73;5.07;;;;;;;18.01;56.75;101757.22;4866338;28;124131;-63
2024/03/19 09:30:35;;;;;;;8.48;4.95;;;;;;;18.05;56.67;101753.38;4848832;28;119476;-62
2024/03/19 09:33:03;;;;;;;8.30;3.70;;;;;;;18.08;56.97;101747.84;4877901;28;118951;-65
2024/03/19 09:35:29;;;;;;;7.35;3.80;;;;;;;18.12;56.96;101753.00;4849174;28;123336;-64
2024/03/19 09:37:57;;;;;;;8.60;3.20;;;;;;;18.14;56.93;101740.34;4877084;28;124289;-61
2024/03/19 09:40:23;;;;;;;6.75;3.33;;;;;;;18.18;56.83;101739.22;4854233;28;119846;-63
2024/03/19 09:42:50;;;;;;;8.85;3.60;;;;;;;18.23;56.82;101750.50;4860229;28;118186;-63
2024/03/19 09:45:27;;;;;;;6.90;2.83;;;;;;;18.28;56.73;101748.41;4864398;28;124795;-63
2024/03/19 09:47:58;;;;;;;5.95;2.65;;;;;;;18.34;56.94;101753.38;4859464;28;123682;-63
2024/03/19 09:50:25;;;;;;;7.22;3.10;;;;;;;18.41;56.82;101757.38;4843473;28;119173;-63
2024/03/19 09:52:55;;;;;;;8.68;3.10;;;;;;;18.49;56.64;101746.16;4883399;28;119162;-63
2024/03/19 09:55:24;;;;;;;4.18;2.65;;;;;;;18.55;56.38;101750.28;4860734;28;124715;-63
2024/03/19 09:57:53;;;;;;;3.55;2.10;;;;;;;18.57;56.10;101748.34;4875956;28;123869;-63
2024/03/19 10:00:25;;;;;;;6.80;2.75;;;;;;;18.56;55.96;101743.97;4881966;28;119534;-63
2024/03/19 10:02:53;;;;;;;6.32;2.88;;;;;;;18.57;56.05;101742.97;4883541;28;119009;-63
2024/03/19 10:05:20;;;;;;;6.13;2.60;;;;;;;18.59;55.93;101746.44;4879963;28;124083;-63
2024/03/19 10:07:51;;;;;;;9.75;2.65;;;;;;;18.64;55.73;101749.69;4880506;28;124071;-63
2024/03/19 10:10:18;;;;;;;5.45;2.38;;;;;;;18.69;55.83;101752.94;4884088;28;120517;-63
2024/03/19 10:12:46;;;;;;;3.83;2.10;;;;;;;18.76;55.75;101748.00;4855132;28;118948;-62
2024/03/19 10:15:21;;;;;;;6.30;2.10;;;;;;;18.79;55.54;101743.31;4878739;28;124633;-62
2024/03/19 10:17:48;;;;;;;6.38;2.22;;;;;;;18.84;55.33;101741.22;4861953;28;124571;-61
2024/03/19 10:20:18;;;;;;;5.82;2.03;;;;;;;18.89;55.18;101742.75;4864500;28;118138;-62
2024/03/19 10:22:45;;;;;;;3.65;2.10;;;;;;;18.90;54.94;101733.75;4849062;28;120426;-61
2024/03/19 10:25:13;;;;;;;6.47;2.10;;;;;;;18.91;54.87;101740.81;4846936;28;126158;-62
2024/03/19 10:27:42;;;;;;;5.57;2.00;;;;;;;18.92;54.82;101739.88;4883481;28;123950;-62
2024/03/19 10:30:14;;;;;;;6.65;2.10;;;;;;;18.93;54.81;101749.63;4883844;28;119304;-62
2024/03/19 10:32:42;;;;;;;4.45;1.67;;;;;;;18.97;54.64;101745.81;4857599;28;121486;-62
2024/03/19 10:35:29;;;;;;;9.00;1.70;;;;;;;18.96;54.50;101744.06;4864762;28;124750;-62
2024/03/19 10:37:55;;;;;;;5.65;1.70;;;;;;;19.01;54.25;101741.94;4869132;28;124205;-62
2024/03/19 10:40:22;;;;;;;4.97;1.83;;;;;;;19.02;54.04;101738.28;4873295;28;119427;-62
2024/03/19 10:42:50;;;;;;;5.35;1.95;;;;;;;19.02;53.87;101738.28;4889040;28;118648;-62
2024/03/19 10:45:21;;;;;;;5.93;1.90;;;;;;;19.03;53.77;101740.88;4870653;28;123872;-62
2024/03/19 10:47:52;;;;;;;6.35;1.92;;;;;;;19.09;53.79;101739.59;4856392;28;124008;-62
2024/03/19 10:50:20;;;;;;;4.75;1.92;;;;;;;19.14;53.96;101734.78;4881537;28;119330;-62
2024/03/19 10:53:03;;;;;;;5.70;2.10;;;;;;;19.21;53.94;101733.44;4879210;28;118457;-62
2024/03/19 10:55:35;;;;;;;5.25;2.10;;;;;;;19.30;53.66;101736.44;4862077;28;124078;-62
2024/03/19 10:58:03;;;;;;;5.30;1.98;;;;;;;19.35;53.49;101724.41;4877957;28;124536;-62
2024/03/19 11:00:30;;;;;;;6.50;1.98;;;;;;;19.40;53.52;101726.78;4862858;28;120108;-62
2024/03/19 11:03:00;;;;;;;4.78;1.90;;;;;;;19.45;53.48;101725.50;4878418;28;120329;-62
2024/03/19 11:05:27;;;;;;;7.07;1.92;;;;;;;19.56;53.60;101724.78;4866228;28;124021;-63
2024/03/19 11:07:57;;;;;;;4.55;2.10;;;;;;;19.67;53.33;101723.19;4881789;28;124462;-61
2024/03/19 11:10:35;;;;;;;9.07;2.00;;;;;;;19.76;53.11;101722.53;4878951;28;120003;-61
2024/03/19 11:13:11;;;;;;;7.82;1.98;;;;;;;19.83;53.15;101723.84;4863122;28;119749;-62
2024/03/19 11:15:41;;;;;;;4.57;2.05;;;;;;;19.90;52.97;101719.75;4875167;28;124543;-62